Terminal Aerodrome Forecast
Issued by NWS

Home | Current Version | Previous Version | Text Only | Print | Product List | Glossary Off
Versions: 1 2 3 4 5 6 7 8 9 10 11 12 13 14 15 16 17 18 19

000
FTUS43 KMPX 191700
TAFRWF
TAF
KRWF 191728Z 1918/2018 31019G29KT P6SM SCT028 BKN040
      TEMPO 1918/1921 5SM -SN BLSN BKN028
     FM192100 29016G25KT P6SM SCT022 BKN035
     FM200100 27008KT P6SM SCT030
     FM201400 30011G16KT P6SM SCT040=

USA.gov is the U.S. government's official web portal to all federal, state and local government web resources and services.